首页
METAR-TAF:

METAR-TAF

机场 :

奈洛比, 肯尼亚

纬度: 01-19S, 经度: 036-49E, 海拔: 1683米

当前天气观测

该预报发布于24分钟前的10:00 UTC
风速10节,风向东转东南
温度 19°C
湿度 56%
气压 1025 hPa
能见度10公里或以上
多云层高于2100英尺

METAR: HKNW 011000Z 12010KT 9999 BKN021 19/10 Q1025

时间: 13:24 (10:24 UTC)

预报

该预报发布于5小时和24分钟前的05:00 UTC
预报有效从01日的 06点(UTC)到 02日的 06点(UTC)
风速5节,风向
能见度10公里或以上
散云层高于1600英尺
多云层高于8000英尺
成为
从 01日的 08点(UTC)到 01日的 11点(UTC)
风速10节,风向东南
多云层高于2500英尺
成为
从 01日的 20点(UTC)到 01日的 23点(UTC)
风速3节,风向多变
散云层高于1800英尺

TAF: HKNW 010500Z 0106/0206 18005KT 9999 SCT016 BKN080 BECMG 0108/0111 13010KT BKN025 BECMG 0120/0123 VRB03KT SCT018

超过4000个机场的气象观测和天气预报(METAR&TAF报告)。

可查询的气象台以黄色和红色小点在地图上表示。

将鼠标移到小点上方,可查看气象台名称。

然后点击查看天气观测和预报。

如需切换地图:点击带黑十字的绿色按钮放大地图;点击带横线的绿色按钮缩小地图;或者点击绿色箭头查看邻近地区的地图。


METAR-TAF: